OAL117 LGTS-LTAI
Flight info
| Callsign | OAL117 |
|---|---|
| Flight time | N/A |
| Altitude | 35000 |
| Route | ARNAS DCT PEREN UN128 RIKSO UP14 LAVTA UN135 NESIL |
| Aircraft | A320/M-SDE3FGHIRWY/LB1 |
Departure
| Time | 2026-05-05 16:22 |
|---|---|
| Airport | Thessaloniki Macedonia International Airport (LGTS) |
Arrival
| Time | N/A |
|---|---|
| Airport | Antalya International Airport (LTAI) |
| Time | Latitude | Longitude | Altitude | Speed | Heading |
|---|---|---|---|---|---|
| 2026-05-05 15:53 | 40.52433 | 22.97429 | 29 ft | 0 kts | 44° |
| 2026-05-05 16:15 | 40.52431 | 22.97426 | 28 ft | 4 kts | 44° |
| 2026-05-05 16:15 | 40.52398 | 22.97379 | 28 ft | 4 kts | 80° |
| 2026-05-05 16:16 | 40.52393 | 22.97363 | 28 ft | 0 kts | 128° |
| 2026-05-05 16:18 | 40.52393 | 22.97364 | 28 ft | 1 kts | 128° |
| 2026-05-05 16:18 | 40.52382 | 22.97381 | 28 ft | 3 kts | 129° |
| 2026-05-05 16:18 | 40.52328 | 22.97449 | 28 ft | 10 kts | 136° |
| 2026-05-05 16:19 | 40.52271 | 22.97524 | 28 ft | 13 kts | 134° |
| 2026-05-05 16:19 | 40.52201 | 22.97614 | 28 ft | 14 kts | 139° |
| 2026-05-05 16:19 | 40.52031 | 22.97807 | 29 ft | 18 kts | 135° |
| 2026-05-05 16:20 | 40.51945 | 22.98141 | 29 ft | 21 kts | 103° |
| 2026-05-05 16:20 | 40.51865 | 22.98550 | 28 ft | 25 kts | 103° |
| 2026-05-05 16:21 | 40.51710 | 22.98670 | 29 ft | 14 kts | 242° |
| 2026-05-05 16:22 | 40.52042 | 22.96693 | 45 ft | 171 kts | 279° |
| 2026-05-05 16:22 | 40.52784 | 22.93310 | 1137 ft | 218 kts | 285° |
| 2026-05-05 16:23 | 40.53735 | 22.89014 | 2813 ft | 244 kts | 285° |
| 2026-05-05 16:23 | 40.54183 | 22.86908 | 4170 ft | 238 kts | 286° |
| 2026-05-05 16:23 | 40.55088 | 22.82609 | 6082 ft | 258 kts | 287° |
| 2026-05-05 16:24 | 40.55694 | 22.80363 | 6882 ft | 268 kts | 303° |
| 2026-05-05 16:24 | 40.57006 | 22.78621 | 7826 ft | 272 kts | 330° |
| 2026-05-05 16:24 | 40.60700 | 22.78348 | 9870 ft | 282 kts | 25° |
| 2026-05-05 16:25 | 40.62332 | 22.79815 | 10844 ft | 286 kts | 38° |
| 2026-05-05 16:25 | 40.65121 | 22.83607 | 12865 ft | 294 kts | 51° |
| 2026-05-05 16:25 | 40.66308 | 22.85923 | 13387 ft | 318 kts | 58° |
| 2026-05-05 16:26 | 40.67853 | 22.90627 | 13694 ft | 354 kts | 72° |
| 2026-05-05 16:26 | 40.68518 | 22.97216 | 14656 ft | 370 kts | 89° |
| 2026-05-05 16:27 | 40.68283 | 23.00615 | 15220 ft | 376 kts | 98° |
| 2026-05-05 16:27 | 40.67638 | 23.03975 | 15766 ft | 381 kts | 107° |
| 2026-05-05 16:27 | 40.66578 | 23.07215 | 16332 ft | 387 kts | 116° |
| 2026-05-05 16:27 | 40.65113 | 23.10232 | 16896 ft | 393 kts | 125° |
| 2026-05-05 16:28 | 40.63290 | 23.12894 | 17465 ft | 399 kts | 135° |
| 2026-05-05 16:28 | 40.61086 | 23.15197 | 18036 ft | 405 kts | 145° |
| 2026-05-05 16:28 | 40.58594 | 23.16991 | 18567 ft | 411 kts | 155° |
| 2026-05-05 16:28 | 40.55905 | 23.18234 | 19073 ft | 416 kts | 161° |
| 2026-05-05 16:29 | 40.53292 | 23.19836 | 19588 ft | 416 kts | 142° |
| 2026-05-05 16:29 | 40.51322 | 23.22588 | 20061 ft | 414 kts | 118° |
| 2026-05-05 16:29 | 40.50325 | 23.26103 | 20552 ft | 410 kts | 95° |
| 2026-05-05 16:29 | 40.50403 | 23.29808 | 21011 ft | 406 kts | 73° |
| 2026-05-05 16:30 | 40.51357 | 23.33285 | 21474 ft | 406 kts | 64° |
| 2026-05-05 16:30 | 40.52334 | 23.36780 | 21924 ft | 412 kts | 73° |
| 2026-05-05 16:30 | 40.52688 | 23.40554 | 22363 ft | 420 kts | 85° |
| 2026-05-05 16:30 | 40.52763 | 23.44324 | 22801 ft | 423 kts | 85° |
| 2026-05-05 16:31 | 40.52898 | 23.48208 | 23240 ft | 424 kts | 81° |
| 2026-05-05 16:31 | 40.53377 | 23.52042 | 23646 ft | 426 kts | 76° |
| 2026-05-05 16:31 | 40.53918 | 23.55886 | 24001 ft | 428 kts | 76° |
| 2026-05-05 16:31 | 40.54465 | 23.59747 | 24366 ft | 430 kts | 76° |
| 2026-05-05 16:32 | 40.55017 | 23.63630 | 24725 ft | 432 kts | 76° |
| 2026-05-05 16:32 | 40.55573 | 23.67523 | 25071 ft | 434 kts | 76° |
| 2026-05-05 16:32 | 40.56131 | 23.71437 | 25410 ft | 436 kts | 76° |
| 2026-05-05 16:32 | 40.56691 | 23.75380 | 25756 ft | 438 kts | 76° |
| 2026-05-05 16:33 | 40.57241 | 23.79291 | 26096 ft | 440 kts | 76° |
| 2026-05-05 16:33 | 40.57797 | 23.83274 | 26439 ft | 443 kts | 77° |
| 2026-05-05 16:33 | 40.58349 | 23.87271 | 26776 ft | 445 kts | 77° |
| 2026-05-05 16:33 | 40.58625 | 23.91339 | 27099 ft | 450 kts | 88° |
| 2026-05-05 16:34 | 40.58355 | 23.95474 | 27427 ft | 456 kts | 97° |
| 2026-05-05 16:34 | 40.57527 | 23.99516 | 27857 ft | 459 kts | 108° |
| 2026-05-05 16:34 | 40.56173 | 24.03328 | 28334 ft | 460 kts | 118° |
| 2026-05-05 16:34 | 40.54425 | 24.06806 | 28805 ft | 460 kts | 122° |
| 2026-05-05 16:35 | 40.52608 | 24.10268 | 29291 ft | 459 kts | 122° |
| 2026-05-05 16:35 | 40.50790 | 24.13724 | 29772 ft | 458 kts | 122° |
| 2026-05-05 16:35 | 40.48970 | 24.17183 | 30221 ft | 457 kts | 122° |
| 2026-05-05 16:35 | 40.47183 | 24.20573 | 30616 ft | 456 kts | 122° |
| 2026-05-05 16:36 | 40.45367 | 24.24014 | 31008 ft | 456 kts | 122° |
| 2026-05-05 16:36 | 40.43562 | 24.27439 | 31387 ft | 456 kts | 122° |
| 2026-05-05 16:36 | 40.41760 | 24.30855 | 31761 ft | 456 kts | 123° |
| 2026-05-05 16:36 | 40.39950 | 24.34276 | 32146 ft | 455 kts | 123° |
| 2026-05-05 16:37 | 40.38194 | 24.37589 | 32537 ft | 455 kts | 123° |
| 2026-05-05 16:37 | 40.36333 | 24.41095 | 32938 ft | 454 kts | 123° |
| 2026-05-05 16:37 | 40.34524 | 24.44504 | 33331 ft | 454 kts | 123° |
| 2026-05-05 16:37 | 40.32721 | 24.47900 | 33736 ft | 453 kts | 123° |
| 2026-05-05 16:38 | 40.30941 | 24.51246 | 34110 ft | 453 kts | 123° |
| 2026-05-05 16:38 | 40.29141 | 24.54634 | 34411 ft | 453 kts | 123° |
| 2026-05-05 16:38 | 40.27341 | 24.58020 | 34691 ft | 453 kts | 123° |
| 2026-05-05 16:38 | 40.25536 | 24.61410 | 34946 ft | 454 kts | 123° |
| 2026-05-05 16:39 | 40.21905 | 24.68198 | 35039 ft | 455 kts | 123° |
| 2026-05-05 16:39 | 40.17921 | 24.74629 | 35046 ft | 458 kts | 134° |
| 2026-05-05 16:40 | 40.13403 | 24.80472 | 35039 ft | 459 kts | 134° |
| 2026-05-05 16:40 | 40.08840 | 24.86327 | 35044 ft | 459 kts | 134° |
| 2026-05-05 16:41 | 40.04329 | 24.92098 | 35051 ft | 459 kts | 134° |
| 2026-05-05 16:41 | 39.99767 | 24.97938 | 35056 ft | 459 kts | 134° |
| 2026-05-05 16:42 | 39.95217 | 25.03763 | 35052 ft | 459 kts | 134° |
| 2026-05-05 16:42 | 39.90654 | 25.09584 | 35055 ft | 459 kts | 134° |
| 2026-05-05 16:43 | 39.86098 | 25.15396 | 35057 ft | 458 kts | 134° |
| 2026-05-05 16:43 | 39.81542 | 25.21200 | 35053 ft | 458 kts | 134° |
| 2026-05-05 16:44 | 39.76986 | 25.26979 | 35051 ft | 458 kts | 134° |
| 2026-05-05 16:44 | 39.72411 | 25.32752 | 35054 ft | 458 kts | 134° |
| 2026-05-05 16:45 | 39.67843 | 25.38506 | 35054 ft | 458 kts | 134° |
| 2026-05-05 16:45 | 39.63278 | 25.44261 | 35052 ft | 457 kts | 134° |
| 2026-05-05 16:46 | 39.58715 | 25.50012 | 35051 ft | 457 kts | 134° |
| 2026-05-05 16:46 | 39.54163 | 25.55749 | 35052 ft | 456 kts | 134° |
| 2026-05-05 16:47 | 39.49613 | 25.61465 | 35052 ft | 456 kts | 134° |
| 2026-05-05 16:47 | 39.45052 | 25.67161 | 35053 ft | 455 kts | 134° |
| 2026-05-05 16:48 | 39.40492 | 25.72852 | 35053 ft | 455 kts | 134° |
| 2026-05-05 16:48 | 39.35935 | 25.78531 | 35053 ft | 455 kts | 133° |
| 2026-05-05 16:49 | 39.31388 | 25.84195 | 35050 ft | 454 kts | 134° |
| 2026-05-05 16:49 | 39.26831 | 25.89850 | 35053 ft | 454 kts | 133° |
| 2026-05-05 16:50 | 39.22276 | 25.95501 | 35052 ft | 454 kts | 133° |
| 2026-05-05 16:50 | 39.17716 | 26.01138 | 35051 ft | 454 kts | 133° |
| 2026-05-05 16:51 | 39.13144 | 26.06771 | 35050 ft | 453 kts | 133° |
| 2026-05-05 16:51 | 39.08605 | 26.12364 | 35050 ft | 453 kts | 133° |
| 2026-05-05 16:52 | 39.04048 | 26.17983 | 35047 ft | 453 kts | 133° |
| 2026-05-05 16:52 | 38.99476 | 26.23585 | 35049 ft | 453 kts | 133° |